Chesterfield, Missouri
Current Conditions -  °F | °C
As of 2:54 PM on Saturday 20 Dec 2014 (Local Time) from KSUS Reporting Station
Overcast Overcast  
Wind Chill: 43°   Ceiling: 3000
Heat Index: 43°   Visibility: 10mi
Dew Point: 33°   Wind: 3mph
Humidity: 68%   Direction: 160°SSE
Pressure: 30.21"   Gusts: NA
Location:  38.65°N, 90.55°W
Report Text: KSUS 202054Z AUTO 16003KT 10SM OVC030 06/01 A3021 RMK AO2 SLP236 T00610006 55009
Loading
Personal Weather Stations






























Interactive Weather Map New forecast layout! Learn more

10-Day Weather Forecast

Advertisements
Track Severe Weather on mobile